首页
METAR-TAF:

METAR-TAF

机场 :

梅赫拉巴德國際機場

德黑兰, 伊朗

纬度: 35-41N, 经度: 051-21E, 海拔: 1204米

当前天气观测

该预报发布于17分钟前的16:30 UTC
风速6节,风向西
温度 7°C
湿度 70%
气压 1013 hPa
能见度10公里或以上
少量云层高于3500英尺
散云层高于10000英尺

METAR: OIII 081630Z 28006KT 9999 FEW035 SCT100 07/02 Q1013 A2992

时间: 20:17 (16:47 UTC)

预报

该预报发布于5小时和17分钟前的11:30 UTC
预报有效从08日的 12点(UTC)到 09日的 18点(UTC)
风速8节,风向南转南东
能見度: 6000
少量云层高于2500英尺
散云层高于4000英尺
多云层高于12000英尺
小雨
短暂存在
从 08日的 12点(UTC)到 08日的 16点(UTC)
风速16节,风向,有时为26节阵风
能見度: 4000
散云层高于3000英尺, 积雨云.
散云层高于4000英尺
阴天层高于8000英尺
成为
从 08日的 17点(UTC)到 08日的 19点(UTC)
风速6节,风向西
能見度: 3000
少量云层高于3500英尺
多云层高于10000英尺
轻雾
短暂存在
从 08日的 20点(UTC)到 09日的 03点(UTC)
风速14节,风向北转西北
能見度: 1000
雨, 雪, 轻雾
成为
从 09日的 06点(UTC)到 09日的 09点(UTC)
风速16节,风向西转西北
能見度: 6000
少量云层高于3500英尺
散云层高于10000英尺
短暂存在
从 09日的 10点(UTC)到 09日的 15点(UTC)
少量云层高于3000英尺, 积雨云.
散云层高于4000英尺

TAF: OIII 081130Z 0812/0918 16008KT 6000 -RA FEW025 SCT040 BKN120 TEMPO 0812/0816 18016G26KT 4000 SHRA/TSRA SCT030CB SCT040 OVC080 BECMG 0817/0819 28006KT 3000 BR FEW035 BKN100 TEMPO 0820/0903 34014KT 1000 RASN BR BECMG 0906/0909 29016KT 6000 FEW035 SCT100 TEMPO 0910/0915 FEW030CB SCT040

超过4000个机场的气象观测和天气预报(METAR&TAF报告)。

可查询的气象台以黄色和红色小点在地图上表示。

将鼠标移到小点上方,可查看气象台名称。

然后点击查看天气观测和预报。

如需切换地图:点击带黑十字的绿色按钮放大地图;点击带横线的绿色按钮缩小地图;或者点击绿色箭头查看邻近地区的地图。


METAR-TAF: